Time;durP1;ratioP1;P1;durP2;ratioP2;P2;SDS_P1;SDS_P2;PMS_P1;PMS_P2;Temp;Humidity;BMP_temperature;BMP_pressure;BME280_temperature;BME280_humidity;BME280_pressure;Samples;Min_cycle;Max_cycle;Signal;HPM_P1;HPM_P2
2023/01/17 00:01:28;;;;;;;66.68;45.10;;;26.50;99.90;;;;;;5067659;28;20025;-66
2023/01/17 00:11:23;;;;;;;36.80;24.27;;;26.60;99.90;;;;;;5036017;28;20044;-68
2023/01/17 00:13:49;;;;;;;31.15;19.77;;;26.60;99.90;;;;;;5036128;28;20064;-65
2023/01/17 00:16:16;;;;;;;29.73;19.60;;;26.60;99.90;;;;;;5036126;28;20026;-67
2023/01/17 00:26:01;;;;;;;34.60;22.15;;;26.60;99.90;;;;;;5035962;28;20383;-66
2023/01/17 00:26:30;;;;;;;43.42;23.17;;;26.40;99.90;;;;;;5035804;28;20026;-67
2023/01/17 01:33:41;;;;;;;33.40;21.38;;;26.00;99.90;;;;;;5034761;28;20017;-67
2023/01/17 01:36:08;;;;;;;33.13;23.80;;;26.10;99.90;;;;;;5034645;28;20026;-65
2023/01/17 01:38:35;;;;;;;31.98;24.42;;;26.10;99.90;;;;;;5046377;28;20036;-65
2023/01/17 01:41:02;;;;;;;30.55;22.73;;;26.10;99.90;;;;;;5034304;28;20025;-66
2023/01/17 01:43:34;;;;;;;26.88;21.20;;;26.10;99.90;;;;;;5034505;28;20049;-65
2023/01/17 01:46:00;;;;;;;24.52;18.25;;;26.10;99.90;;;;;;5034091;28;20030;-64
2023/01/17 01:48:33;;;;;;;23.08;16.85;;;26.10;99.90;;;;;;5034214;28;20036;-64
2023/01/17 01:51:02;;;;;;;18.70;16.10;;;26.20;99.90;;;;;;5034053;28;20054;-65
2023/01/17 01:53:31;;;;;;;21.95;18.13;;;26.30;99.90;;;;;;5034090;28;20032;-66
2023/01/17 01:55:58;;;;;;;23.50;18.88;;;26.30;99.90;;;;;;5034129;28;20090;-65
2023/01/17 01:58:31;;;;;;;27.48;22.52;;;26.30;99.90;;;;;;5034465;28;20383;-65
2023/01/17 02:00:57;;;;;;;26.25;19.55;;;26.40;99.90;;;;;;5033860;28;20025;-66
2023/01/17 02:03:30;;;;;;;25.23;18.75;;;26.40;99.90;;;;;;5034393;28;20022;-65
2023/01/17 02:06:06;;;;;;;20.52;17.83;;;26.50;99.90;;;;;;5033947;28;20471;-64
2023/01/17 02:08:33;;;;;;;25.23;19.48;;;26.50;99.90;;;;;;5034133;28;20034;-66
2023/01/17 02:11:01;;;;;;;27.65;21.33;;;26.50;99.90;;;;;;5033791;28;20390;-65
2023/01/17 02:13:28;;;;;;;25.20;21.30;;;26.50;99.90;;;;;;5033833;28;20021;-65
2023/01/17 02:15:59;;;;;;;30.38;23.50;;;26.60;99.90;;;;;;5033886;28;20025;-66
2023/01/17 02:18:28;;;;;;;319.02;235.68;;;26.60;99.90;;;;;;5033791;28;20095;-65
2023/01/17 02:20:57;;;;;;;59.35;45.67;;;26.60;99.90;;;;;;5033645;28;20052;-65
2023/01/17 02:23:27;;;;;;;40.00;29.92;;;26.60;99.90;;;;;;5033576;28;20105;-67
2023/01/17 02:25:59;;;;;;;35.42;29.13;;;26.50;99.90;;;;;;5033365;28;20028;-65
2023/01/17 02:28:29;;;;;;;39.17;31.70;;;26.50;99.90;;;;;;5033622;28;20021;-65
2023/01/17 02:31:05;;;;;;;41.33;32.38;;;26.50;99.90;;;;;;5033590;28;20033;-65
2023/01/17 02:33:51;;;;;;;51.25;34.67;;;26.50;99.90;;;;;;5030104;28;20025;-66
2023/01/17 02:36:25;;;;;;;46.03;34.78;;;26.50;99.90;;;;;;5033570;28;20421;-65
2023/01/17 02:38:57;;;;;;;46.63;36.65;;;26.50;99.90;;;;;;5033576;28;20041;-65
2023/01/17 02:41:29;;;;;;;48.97;35.50;;;26.50;99.90;;;;;;5033443;28;20030;-65
2023/01/17 02:43:56;;;;;;;45.13;35.67;;;26.60;99.90;;;;;;5033272;28;20036;-64
2023/01/17 02:46:22;;;;;;;46.88;34.50;;;26.60;99.90;;;;;;5033279;28;20029;-66
2023/01/17 02:48:50;;;;;;;44.30;35.05;;;26.60;99.90;;;;;;5033572;28;20418;-65
2023/01/17 02:51:22;;;;;;;43.03;32.80;;;26.60;99.90;;;;;;5033135;28;20116;-65
2023/01/17 02:53:54;;;;;;;38.20;29.98;;;26.60;99.90;;;;;;5033788;28;20014;-65
2023/01/17 02:56:25;;;;;;;38.33;29.50;;;26.60;99.90;;;;;;5036300;28;20028;-65
2023/01/17 02:59:02;;;;;;;39.03;29.95;;;26.60;99.90;;;;;;5042014;28;20021;-64
2023/01/17 03:01:45;;;;;;;43.08;31.75;;;26.60;99.90;;;;;;5033224;28;20018;-65
2023/01/17 03:04:20;;;;;;;37.42;28.15;;;26.70;99.90;;;;;;5033322;28;20017;-65
2023/01/17 03:06:56;;;;;;;44.22;26.55;;;26.70;99.90;;;;;;5033484;28;20034;-67
2023/01/17 03:09:25;;;;;;;33.10;24.17;;;26.70;99.90;;;;;;5033272;28;20490;-65
2023/01/17 03:11:53;;;;;;;34.47;24.17;;;26.60;99.90;;;;;;5033186;28;20037;-65
2023/01/17 03:14:19;;;;;;;28.73;22.30;;;26.70;99.90;;;;;;5033492;28;20072;-67
2023/01/17 03:16:46;;;;;;;29.02;20.38;;;26.80;99.90;;;;;;5046197;28;20017;-68
2023/01/17 03:19:13;;;;;;;29.88;21.13;;;26.70;99.90;;;;;;5050088;28;20017;-67
2023/01/17 03:21:40;;;;;;;22.98;18.75;;;26.80;99.90;;;;;;5052670;28;20044;-67
2023/01/17 03:24:06;;;;;;;27.65;20.17;;;26.80;99.90;;;;;;5052200;28;20104;-67
2023/01/17 03:26:33;;;;;;;25.50;19.85;;;26.80;99.90;;;;;;5049904;28;20024;-67
2023/01/17 03:29:00;;;;;;;27.23;20.85;;;26.90;99.90;;;;;;5052818;28;20021;-65
2023/01/17 03:31:26;;;;;;;27.52;20.67;;;26.80;99.90;;;;;;5052351;28;20029;-66
2023/01/17 03:33:53;;;;;;;24.90;19.48;;;26.80;99.90;;;;;;5049917;28;20485;-65
2023/01/17 03:36:19;;;;;;;31.98;24.00;;;26.80;99.90;;;;;;5052647;28;20017;-66
2023/01/17 03:38:46;;;;;;;24.30;18.08;;;26.90;99.90;;;;;;5054561;28;20017;-65
2023/01/17 03:41:12;;;;;;;24.63;18.35;;;26.80;99.90;;;;;;5056497;28;20119;-64
2023/01/17 03:43:39;;;;;;;27.75;21.60;;;26.90;99.90;;;;;;5053321;28;20029;-65
2023/01/17 03:46:16;;;;;;;26.40;20.15;;;26.90;99.90;;;;;;5055920;28;20021;-64
2023/01/17 03:48:42;;;;;;;23.30;16.60;;;27.00;99.90;;;;;;5053716;28;20060;-66
2023/01/17 03:51:09;;;;;;;24.83;12.75;;;27.00;99.90;;;;;;5055868;28;20110;-62
2023/01/17 03:53:35;;;;;;;20.17;12.25;;;27.00;99.90;;;;;;5054218;28;20519;-64
2023/01/17 03:56:02;;;;;;;18.65;14.88;;;26.90;99.90;;;;;;5055855;28;20017;-65
2023/01/17 03:58:28;;;;;;;24.73;18.98;;;26.90;99.90;;;;;;5055913;28;20497;-64
2023/01/17 04:00:55;;;;;;;35.60;27.20;;;26.90;99.90;;;;;;5055477;28;20417;-65
2023/01/17 04:03:21;;;;;;;34.83;27.60;;;27.00;99.90;;;;;;5055573;28;20086;-65
2023/01/17 04:05:48;;;;;;;26.52;20.23;;;27.10;99.90;;;;;;5056114;28;20028;-65
2023/01/17 04:08:14;;;;;;;21.95;16.60;;;27.10;99.90;;;;;;5044298;28;20060;-64
2023/01/17 04:10:41;;;;;;;24.50;19.83;;;27.10;99.90;;;;;;5055462;28;20033;-65
2023/01/17 04:13:07;;;;;;;20.65;13.38;;;27.20;99.90;;;;;;5055499;28;20013;-68
2023/01/17 04:15:34;;;;;;;20.30;11.75;;;27.30;99.90;;;;;;5044156;28;20054;-67
2023/01/17 04:18:02;;;;;;;21.92;11.15;;;27.30;99.90;;;;;;5045996;28;20021;-68
2023/01/17 04:20:33;;;;;;;14.13;9.55;;;27.30;99.90;;;;;;5045856;28;20025;-67
2023/01/17 04:22:59;;;;;;;9.65;7.88;;;27.40;99.90;;;;;;5052458;28;20066;-68
2023/01/17 04:25:26;;;;;;;15.95;9.63;;;27.40;99.90;;;;;;5055256;28;20455;-66
2023/01/17 04:27:53;;;;;;;10.20;8.00;;;27.40;99.90;;;;;;5044397;28;20036;-66
2023/01/17 04:30:20;;;;;;;12.55;8.15;;;27.40;99.90;;;;;;5052560;28;20404;-67
2023/01/17 04:32:46;;;;;;;20.08;8.43;;;27.40;99.90;;;;;;5055288;28;20033;-67
2023/01/17 04:35:13;;;;;;;12.15;7.15;;;27.40;99.90;;;;;;5044305;28;20167;-66
2023/01/17 04:37:39;;;;;;;9.82;7.60;;;27.40;99.90;;;;;;5052068;28;20103;-67
2023/01/17 04:40:06;;;;;;;9.75;6.93;;;27.40;99.90;;;;;;5054068;28;20104;-66
2023/01/17 04:42:33;;;;;;;12.95;7.88;;;;;;;;;;5054951;28;20021;-67
2023/01/17 04:44:59;;;;;;;13.55;8.10;;;27.40;99.90;;;;;;5052440;28;20035;-67
2023/01/17 04:47:26;;;;;;;13.82;9.40;;;27.40;99.90;;;;;;5055207;28;20067;-68
2023/01/17 04:49:53;;;;;;;13.23;9.18;;;27.40;99.90;;;;;;5054873;28;20037;-68
2023/01/17 04:52:20;;;;;;;11.07;9.25;;;27.40;99.90;;;;;;5052108;28;20153;-65
2023/01/17 04:54:48;;;;;;;12.13;9.82;;;27.40;99.90;;;;;;5055184;28;20467;-65
2023/01/17 04:57:17;;;;;;;14.30;10.35;;;27.40;99.90;;;;;;5054910;28;20032;-67
2023/01/17 04:59:45;;;;;;;13.25;9.35;;;27.40;99.90;;;;;;5051077;28;20029;-66
2023/01/17 05:02:12;;;;;;;12.40;8.73;;;27.40;99.90;;;;;;5054840;28;20029;-66
2023/01/17 05:04:39;;;;;;;11.50;8.48;;;27.40;99.90;;;;;;5052247;28;20049;-65
2023/01/17 05:07:06;;;;;;;11.95;9.32;;;27.30;99.90;;;;;;5054609;28;20017;-66
2023/01/17 05:09:33;;;;;;;17.27;12.07;;;27.30;99.90;;;;;;5043912;28;20437;-65
2023/01/17 05:11:59;;;;;;;11.52;10.05;;;27.20;99.90;;;;;;5052005;28;20048;-65
2023/01/17 05:14:26;;;;;;;17.35;11.93;;;27.20;99.90;;;;;;5054501;28;20374;-66
2023/01/17 05:16:54;;;;;;;14.00;9.63;;;27.20;99.90;;;;;;5043435;28;20029;-66
2023/01/17 05:19:22;;;;;;;10.50;8.20;;;27.20;99.90;;;;;;5042947;28;20017;-65
2023/01/17 05:21:48;;;;;;;11.07;9.00;;;27.20;99.90;;;;;;5040836;28;20033;-66
2023/01/17 05:24:15;;;;;;;12.02;8.32;;;27.20;99.90;;;;;;5053206;28;20033;-65
2023/01/17 05:26:42;;;;;;;10.30;7.97;;;27.20;99.90;;;;;;5052928;28;20087;-66
2023/01/17 05:29:09;;;;;;;13.57;8.65;;;27.20;99.90;;;;;;5052492;28;20067;-65
2023/01/17 05:31:36;;;;;;;11.73;8.32;;;27.20;99.90;;;;;;5052913;28;20033;-66
2023/01/17 05:34:03;;;;;;;11.18;9.05;;;27.30;99.90;;;;;;5037353;28;20020;-66
2023/01/17 05:36:30;;;;;;;11.57;9.73;;;27.30;99.90;;;;;;5040606;28;20017;-65
2023/01/17 05:38:56;;;;;;;15.63;11.95;;;27.30;99.90;;;;;;5045212;28;20013;-65
2023/01/17 05:41:23;;;;;;;16.98;12.93;;;27.30;99.90;;;;;;5043363;28;20032;-67
2023/01/17 05:43:49;;;;;;;18.40;14.27;;;27.30;99.90;;;;;;5053661;28;20025;-66
2023/01/17 05:46:16;;;;;;;17.55;13.93;;;27.30;99.90;;;;;;5051865;28;20074;-66
2023/01/17 05:48:43;;;;;;;16.63;12.82;;;27.30;99.90;;;;;;5053246;28;20389;-65
2023/01/17 05:51:09;;;;;;;12.18;10.10;;;27.30;99.90;;;;;;5043185;28;20493;-65
2023/01/17 05:53:36;;;;;;;13.05;9.52;;;27.30;99.90;;;;;;5053568;28;20174;-65
2023/01/17 05:56:02;;;;;;;14.15;10.57;;;27.30;99.90;;;;;;5044064;28;20013;-66
2023/01/17 05:58:29;;;;;;;13.38;9.77;;;27.30;99.90;;;;;;5039411;28;20013;-65
2023/01/17 06:00:55;;;;;;;14.93;10.48;;;27.30;99.90;;;;;;5034094;28;20629;-65
2023/01/17 06:03:22;;;;;;;13.10;10.05;;;27.30;99.90;;;;;;5034939;28;20021;-66
2023/01/17 06:05:49;;;;;;;10.63;7.60;;;27.20;99.90;;;;;;5035044;28;20084;-65
2023/01/17 06:08:15;;;;;;;10.13;8.52;;;27.20;99.90;;;;;;5037409;28;20079;-64
2023/01/17 06:10:42;;;;;;;14.23;9.90;;;27.20;99.90;;;;;;5052065;28;20028;-65
2023/01/17 06:13:13;;;;;;;11.80;9.35;;;27.20;99.90;;;;;;5053445;28;20021;-64
2023/01/17 06:15:41;;;;;;;13.85;10.38;;;27.20;99.90;;;;;;5047699;28;20025;-66
2023/01/17 06:18:11;;;;;;;15.63;10.02;;;27.20;99.90;;;;;;5053577;28;20028;-68
2023/01/17 06:20:38;;;;;;;14.48;11.40;;;27.20;99.90;;;;;;5053506;28;20021;-66
2023/01/17 06:23:07;;;;;;;13.93;11.95;;;27.20;99.90;;;;;;5053589;28;20029;-67
2023/01/17 06:25:37;;;;;;;18.30;12.48;;;27.30;99.90;;;;;;5052914;28;20021;-68
2023/01/17 06:28:05;;;;;;;22.13;14.13;;;27.30;99.90;;;;;;5053550;28;20021;-66
2023/01/17 06:30:32;;;;;;;19.58;14.30;;;27.30;99.90;;;;;;5054214;28;20140;-66
2023/01/17 06:32:59;;;;;;;17.13;13.68;;;27.30;99.90;;;;;;5054598;28;20070;-66
2023/01/17 06:35:25;;;;;;;20.30;14.43;;;27.20;99.90;;;;;;5054635;28;20013;-66
2023/01/17 06:37:54;;;;;;;21.17;15.93;;;27.30;99.90;;;;;;5053621;28;20043;-66
2023/01/17 06:40:21;;;;;;;21.73;15.95;;;27.30;99.90;;;;;;5050264;28;20528;-66
2023/01/17 06:42:48;;;;;;;20.52;16.70;;;27.40;99.90;;;;;;5052532;28;20533;-65
2023/01/17 06:45:15;;;;;;;22.17;17.30;;;27.40;99.90;;;;;;5052787;28;20033;-65
2023/01/17 06:47:42;;;;;;;20.05;15.82;;;27.40;99.90;;;;;;5052812;28;20036;-66
2023/01/17 06:50:12;;;;;;;22.45;15.85;;;27.40;99.90;;;;;;5049768;28;20036;-65
2023/01/17 06:52:40;;;;;;;14.95;11.60;;;27.40;99.90;;;;;;5043003;28;20092;-64
2023/01/17 06:55:07;;;;;;;15.02;10.25;;;27.40;99.90;;;;;;5044674;28;20020;-65
2023/01/17 06:57:33;;;;;;;15.55;10.90;;;27.40;99.90;;;;;;5047530;28;20017;-63
2023/01/17 07:00:00;;;;;;;13.68;10.07;;;27.50;99.90;;;;;;5053583;28;20056;-65
2023/01/17 07:02:27;;;;;;;13.60;9.57;;;27.40;99.90;;;;;;5071696;23;20061;-65
2023/01/17 07:04:54;;;;;;;14.50;9.80;;;27.40;99.90;;;;;;5045367;22;20072;-64
2023/01/17 07:07:21;;;;;;;11.05;7.93;;;27.40;99.90;;;;;;5024207;28;20332;-65
2023/01/17 07:09:47;;;;;;;18.00;13.82;;;27.50;99.90;;;;;;5021649;28;20060;-64
2023/01/17 07:12:14;;;;;;;14.20;11.13;;;27.50;99.90;;;;;;5026723;28;20036;-66
2023/01/17 07:14:40;;;;;;;8.30;7.00;;;27.50;99.90;;;;;;5032177;28;20018;-65
2023/01/17 07:17:07;;;;;;;9.10;7.05;;;27.60;99.90;;;;;;5028586;28;20021;-65
2023/01/17 07:19:33;;;;;;;11.23;7.45;;;27.60;99.90;;;;;;5040937;22;20050;-65
2023/01/17 07:22:00;;;;;;;9.93;7.45;;;27.60;99.90;;;;;;5017209;28;20101;-64
2023/01/17 07:24:26;;;;;;;11.07;6.78;;;27.60;99.90;;;;;;5016553;28;20478;-65
2023/01/17 07:26:53;;;;;;;22.83;8.40;;;27.60;99.90;;;;;;5016607;28;20026;-66
2023/01/17 07:29:19;;;;;;;12.38;8.30;;;27.70;99.90;;;;;;5012515;28;20029;-64
2023/01/17 07:31:48;;;;;;;11.60;7.35;;;27.60;99.90;;;;;;5016461;28;20084;-63
2023/01/17 07:34:15;;;;;;;12.98;7.32;;;27.60;99.90;;;;;;5017381;28;20100;-64
2023/01/17 07:36:41;;;;;;;9.15;6.95;;;27.70;99.90;;;;;;5017287;28;20097;-65
2023/01/17 07:39:09;;;;;;;12.93;7.15;;;27.70;99.90;;;;;;5017218;28;20025;-65
2023/01/17 07:41:40;;;;;;;10.27;7.10;;;27.70;99.90;;;;;;5079161;22;20053;-66
2023/01/17 07:44:09;;;;;;;9.65;6.82;;;27.70;99.90;;;;;;5074973;28;20020;-71
2023/01/17 07:46:35;;;;;;;10.00;6.88;;;27.70;99.90;;;;;;5075932;28;20023;-65
2023/01/17 07:49:02;;;;;;;10.52;7.53;;;27.70;99.90;;;;;;5076079;28;20020;-65
2023/01/17 07:51:28;;;;;;;10.75;6.72;;;27.80;99.90;;;;;;5069822;28;20039;-66
2023/01/17 07:53:55;;;;;;;9.00;6.97;;;27.80;99.90;;;;;;5075610;28;20020;-66
2023/01/17 07:56:22;;;;;;;16.15;8.32;;;27.80;99.90;;;;;;5074789;28;20450;-66
2023/01/17 07:58:48;;;;;;;13.85;9.25;;;27.80;99.90;;;;;;5074690;28;20025;-66
2023/01/17 08:01:15;;;;;;;12.35;7.22;;;27.80;99.90;;;;;;5075061;28;20028;-66
2023/01/17 08:03:42;;;;;;;10.43;7.43;;;27.90;99.90;;;;;;5075578;28;20495;-66
2023/01/17 08:06:13;;;;;;;9.70;7.45;;;27.90;99.90;;;;;;5075832;28;20066;-66
2023/01/17 08:08:40;;;;;;;8.88;6.95;;;27.90;99.90;;;;;;5075652;28;20541;-66
2023/01/17 08:11:06;;;;;;;10.98;7.30;;;27.90;99.90;;;;;;5075404;28;20028;-66
2023/01/17 08:13:33;;;;;;;8.30;6.60;;;27.90;99.90;;;;;;5075637;28;20062;-66
2023/01/17 08:16:02;;;;;;;8.20;6.70;;;27.80;99.90;;;;;;5075784;28;20024;-66
2023/01/17 08:18:29;;;;;;;8.55;6.53;;;27.80;99.90;;;;;;5074553;28;20077;-66
2023/01/17 08:20:56;;;;;;;9.02;6.38;;;27.90;99.90;;;;;;5075393;28;20016;-66
2023/01/17 08:23:22;;;;;;;8.07;6.45;;;27.80;99.90;;;;;;5064858;28;20057;-66
2023/01/17 08:25:49;;;;;;;7.88;6.95;;;27.90;99.90;;;;;;5053912;28;20029;-67
2023/01/17 08:28:15;;;;;;;9.15;7.47;;;27.80;99.90;;;;;;5056296;28;20032;-66
2023/01/17 08:30:42;;;;;;;9.25;7.20;;;27.80;99.90;;;;;;5056329;28;20025;-66
2023/01/17 08:33:09;;;;;;;8.30;6.88;;;27.80;99.90;;;;;;5055951;28;20021;-66
2023/01/17 08:35:35;;;;;;;11.07;8.05;;;27.80;99.90;;;;;;5055527;28;20017;-65
2023/01/17 08:38:04;;;;;;;13.07;7.63;;;27.80;99.90;;;;;;5055211;28;20028;-66
2023/01/17 08:40:32;;;;;;;11.20;7.00;;;27.90;99.90;;;;;;5051577;28;20419;-66
2023/01/17 08:43:00;;;;;;;11.98;7.90;;;27.90;99.90;;;;;;5055126;28;20021;-64
2023/01/17 08:45:27;;;;;;;10.02;6.60;;;27.80;99.90;;;;;;5055301;28;20056;-65
2023/01/17 08:47:56;;;;;;;8.32;6.22;;;27.90;99.90;;;;;;5055254;28;20021;-65
2023/01/17 08:50:24;;;;;;;10.00;6.65;;;27.80;99.90;;;;;;5055072;28;20032;-66
2023/01/17 08:52:56;;;;;;;7.45;6.40;;;27.90;99.90;;;;;;5052336;28;20032;-65
2023/01/17 08:55:23;;;;;;;7.40;6.03;;;27.80;99.90;;;;;;5055204;28;20021;-66
2023/01/17 08:57:49;;;;;;;7.55;6.45;;;27.80;99.90;;;;;;5055324;28;20013;-65
2023/01/17 09:00:16;;;;;;;9.07;6.40;;;27.80;99.90;;;;;;5055411;28;20091;-66
2023/01/17 09:02:43;;;;;;;8.60;6.28;;;27.80;99.90;;;;;;5054614;28;20028;-65
2023/01/17 09:05:10;;;;;;;7.65;6.25;;;27.80;99.90;;;;;;5052065;28;20013;-66
2023/01/17 09:07:37;;;;;;;8.80;6.70;;;27.90;99.90;;;;;;5055885;28;20029;-66
2023/01/17 09:10:05;;;;;;;10.20;7.50;;;27.90;99.90;;;;;;5055778;28;20481;-66
2023/01/17 09:12:33;;;;;;;11.45;7.70;;;27.90;99.90;;;;;;5053286;28;20029;-66
2023/01/17 09:15:01;;;;;;;14.50;8.57;;;27.80;99.90;;;;;;5055625;28;20096;-66
2023/01/17 09:17:27;;;;;;;16.90;9.25;;;27.80;99.90;;;;;;5055488;28;20473;-66
2023/01/17 09:19:54;;;;;;;13.00;8.23;;;27.80;99.90;;;;;;5055349;28;20053;-66
2023/01/17 09:22:21;;;;;;;9.65;7.70;;;27.80;99.90;;;;;;5055020;28;20111;-66
2023/01/17 09:24:47;;;;;;;13.30;8.93;;;27.80;99.90;;;;;;5054600;28;20039;-66
2023/01/17 09:27:14;;;;;;;16.73;10.30;;;27.90;99.90;;;;;;5053764;28;20024;-65
2023/01/17 09:29:40;;;;;;;17.80;10.55;;;27.90;99.90;;;;;;5051893;28;20025;-67
2023/01/17 09:32:07;;;;;;;15.98;10.00;;;27.90;99.90;;;;;;5053502;28;20023;-67
2023/01/17 09:34:33;;;;;;;11.85;8.48;;;27.90;99.90;;;;;;5052059;28;20040;-67
2023/01/17 09:37:00;;;;;;;11.13;8.20;;;27.90;99.90;;;;;;5052191;28;20458;-66
2023/01/17 09:39:26;;;;;;;14.15;9.63;;;27.90;99.90;;;;;;5054131;28;20052;-69
2023/01/17 09:41:56;;;;;;;9.63;7.70;;;27.90;99.90;;;;;;5054229;28;20049;-67
2023/01/17 09:44:45;;;;;;;26.00;15.63;;;27.80;99.90;;;;;;5054694;28;20382;-68
2023/01/17 09:47:18;;;;;;;16.90;11.50;;;27.90;99.90;;;;;;5049209;28;20040;-68
2023/01/17 09:49:46;;;;;;;15.45;10.77;;;27.90;99.90;;;;;;5055236;28;20131;-67
2023/01/17 09:52:19;;;;;;;20.33;11.88;;;27.90;99.90;;;;;;5053205;28;20037;-66
2023/01/17 09:54:48;;;;;;;14.05;12.13;;;27.90;99.90;;;;;;5052468;28;20028;-66
2023/01/17 09:57:19;;;;;;;17.70;12.50;;;27.90;99.90;;;;;;5054553;28;20032;-66
2023/01/17 09:59:48;;;;;;;14.18;11.25;;;27.90;99.90;;;;;;5052124;28;20082;-67
2023/01/17 10:02:23;;;;;;;18.88;14.10;;;27.90;99.90;;;;;;5053802;28;20029;-66
2023/01/17 10:04:54;;;;;;;22.13;15.80;;;27.90;99.90;;;;;;5052284;28;20021;-67
2023/01/17 10:07:26;;;;;;;25.00;15.83;;;27.90;99.90;;;;;;5050961;28;20384;-66
2023/01/17 10:09:57;;;;;;;31.05;17.83;;;27.90;99.90;;;;;;5053445;28;20066;-67
2023/01/17 10:12:24;;;;;;;25.15;15.93;;;27.90;99.90;;;;;;5049290;28;20037;-67
2023/01/17 10:15:06;;;;;;;21.35;14.50;;;27.80;99.90;;;;;;5053375;28;20022;-67
2023/01/17 10:17:35;;;;;;;22.55;16.90;;;27.80;99.90;;;;;;5052069;28;20025;-66
2023/01/17 10:20:24;;;;;;;27.63;16.73;;;27.80;99.90;;;;;;5054106;28;20064;-67
2023/01/17 10:23:02;;;;;;;26.52;16.70;;;27.80;99.90;;;;;;5053315;28;20044;-67
2023/01/17 10:25:31;;;;;;;28.63;20.80;;;27.80;99.90;;;;;;5038078;28;20033;-66
2023/01/17 10:28:08;;;;;;;25.85;20.27;;;27.80;99.90;;;;;;5038564;28;20539;-66
2023/01/17 10:30:47;;;;;;;25.25;16.48;;;27.80;99.90;;;;;;5050705;28;20074;-66
2023/01/17 10:33:20;;;;;;;23.38;17.05;;;27.80;99.90;;;;;;5049697;28;20481;-67
2023/01/17 10:35:56;;;;;;;23.08;16.13;;;27.80;99.90;;;;;;5052407;28;20039;-66
2023/01/17 10:38:35;;;;;;;16.38;12.13;;;27.80;99.90;;;;;;5052167;28;20025;-66
2023/01/17 10:41:09;;;;;;;16.42;11.63;;;27.80;99.90;;;;;;5052435;28;20158;-66
2023/01/17 10:43:46;;;;;;;15.23;10.85;;;27.80;99.90;;;;;;5051749;28;20025;-67
2023/01/17 10:46:19;;;;;;;17.50;11.05;;;27.80;99.90;;;;;;5036088;28;20382;-67
2023/01/17 10:48:49;;;;;;;15.98;12.00;;;27.80;99.90;;;;;;5051981;28;20017;-67
2023/01/17 10:51:23;;;;;;;22.40;15.02;;;27.80;99.90;;;;;;5052535;28;20114;-67
2023/01/17 10:53:55;;;;;;;21.63;14.23;;;27.80;99.90;;;;;;5050772;28;20013;-66
2023/01/17 10:56:26;;;;;;;28.20;14.63;;;27.80;99.90;;;;;;5052616;28;20024;-66
2023/01/17 10:59:14;;;;;;;28.00;15.30;;;27.80;99.90;;;;;;5051116;28;20458;-67
2023/01/17 11:01:41;;;;;;;22.55;14.73;;;27.80;99.90;;;;;;5052038;28;20033;-65
2023/01/17 11:04:19;;;;;;;31.98;16.38;;;27.80;99.90;;;;;;5048533;28;20048;-66
2023/01/17 11:06:46;;;;;;;19.55;14.50;;;27.70;99.90;;;;;;5049891;28;20502;-67
2023/01/17 11:09:14;;;;;;;23.52;14.82;;;27.70;99.90;;;;;;5052662;28;20025;-66
2023/01/17 11:11:48;;;;;;;22.90;13.73;;;27.70;99.90;;;;;;5052796;28;20416;-66
2023/01/17 11:14:19;;;;;;;25.05;13.80;;;27.80;99.90;;;;;;5052681;28;20025;-66
2023/01/17 11:17:01;;;;;;;26.77;17.98;;;27.70;99.90;;;;;;5050271;28;20017;-66
2023/01/17 11:19:31;;;;;;;35.30;23.97;;;27.80;99.90;;;;;;5050159;28;20029;-66
2023/01/17 11:22:01;;;;;;;41.95;30.60;;;27.70;99.90;;;;;;5052190;28;20289;-67
2023/01/17 11:24:34;;;;;;;39.63;25.70;;;27.70;99.90;;;;;;5050345;28;20116;-67
2023/01/17 11:27:05;;;;;;;37.25;21.38;;;27.70;99.90;;;;;;5051299;28;20075;-66
2023/01/17 11:29:34;;;;;;;29.63;20.02;;;27.70;99.90;;;;;;5050669;28;20056;-67
2023/01/17 11:32:06;;;;;;;25.90;18.75;;;27.70;99.90;;;;;;5052150;28;20051;-67
2023/01/17 11:34:33;;;;;;;;;;;27.70;99.90;;;;;;5049815;28;20021;-68
2023/01/17 11:37:25;;;;;;;36.13;24.33;;;27.70;99.90;;;;;;5052199;28;19908;-65
2023/01/17 11:40:05;;;;;;;49.60;34.53;;;27.70;99.90;;;;;;5048937;28;20075;-65
2023/01/17 11:42:35;;;;;;;53.22;35.30;;;27.60;99.90;;;;;;5051943;28;20029;-66
2023/01/17 11:45:24;;;;;;;55.17;37.40;;;27.60;99.90;;;;;;5052121;28;20470;-66
2023/01/17 11:47:56;;;;;;;53.08;33.65;;;27.60;99.90;;;;;;5050776;28;20029;-67
2023/01/17 11:50:25;;;;;;;51.63;33.67;;;27.60;99.90;;;;;;5052092;28;20099;-66
2023/01/17 11:52:53;;;;;;;71.53;41.15;;;27.60;99.90;;;;;;5051813;28;20061;-66
2023/01/17 11:55:21;;;;;;;75.18;47.55;;;27.50;99.90;;;;;;5052134;28;20028;-67
2023/01/17 11:57:50;;;;;;;91.05;54.38;;;27.50;99.90;;;;;;5052073;28;20029;-66
2023/01/17 12:00:21;;;;;;;90.82;52.38;;;27.50;99.90;;;;;;5055258;28;20017;-67
2023/01/17 12:03:03;;;;;;;84.40;49.78;;;27.50;99.90;;;;;;5055776;28;20096;-66
2023/01/17 12:05:34;;;;;;;82.82;46.55;;;27.40;99.90;;;;;;5055982;28;20025;-67
2023/01/17 12:08:05;;;;;;;65.25;37.45;;;27.40;99.90;;;;;;5053684;28;20035;-65
2023/01/17 12:10:37;;;;;;;54.03;35.00;;;27.40;99.90;;;;;;5056671;28;20024;-66
2023/01/17 12:19:02;;;;;;;45.88;28.27;;;27.40;99.90;;;;;;5036414;28;20037;-67
2023/01/17 13:05:51;;;;;;;38.72;23.63;;;27.30;99.90;;;;;;4990322;28;20064;-71
2023/01/17 13:08:41;;;;;;;41.60;25.75;;;27.30;99.90;;;;;;5015100;28;20033;-71
2023/01/17 13:11:08;;;;;;;37.83;24.25;;;27.30;99.90;;;;;;5015087;28;20657;-69
2023/01/17 13:13:35;;;;;;;37.50;25.67;;;27.30;99.90;;;;;;5014945;28;20034;-72
2023/01/17 13:16:06;;;;;;;34.35;24.65;;;27.40;99.90;;;;;;5015032;28;20527;-68
2023/01/17 13:18:37;;;;;;;35.88;24.00;;;27.30;99.90;;;;;;4999985;28;20022;-71
2023/01/17 13:21:24;;;;;;;38.70;26.38;;;27.30;99.90;;;;;;4994049;28;20432;-75
2023/01/17 13:24:00;;;;;;;48.63;28.67;;;27.40;99.90;;;;;;4992008;28;20038;-73
2023/01/17 13:26:45;;;;;;;94.47;50.88;;;27.30;99.90;;;;;;4992647;28;20025;-73
2023/01/17 13:29:38;;;;;;;181.30;89.28;;;27.40;99.90;;;;;;4992217;28;20067;-72
2023/01/17 13:32:44;;;;;;;91.25;47.67;;;27.40;99.90;;;;;;4994738;28;20038;-73
2023/01/17 13:35:25;;;;;;;58.60;38.80;;;27.30;99.90;;;;;;4993814;28;20030;-70
2023/01/17 13:38:02;;;;;;;77.75;42.60;;;27.40;99.90;;;;;;4995939;28;20019;-68
2023/01/17 13:40:44;;;;;;;86.50;47.05;;;27.30;99.90;;;;;;4994865;28;20027;-70
2023/01/17 13:43:25;;;;;;;120.75;65.07;;;27.30;99.90;;;;;;4995543;28;20484;-70
2023/01/17 13:45:56;;;;;;;126.70;71.28;;;27.30;99.90;;;;;;4995484;28;20030;-71
2023/01/17 13:48:28;;;;;;;146.68;90.78;;;27.30;99.90;;;;;;4993079;28;20467;-70
2023/01/17 13:50:59;;;;;;;149.10;87.10;;;27.30;99.90;;;;;;4993688;28;20509;-70
2023/01/17 13:53:46;;;;;;;147.68;81.25;;;27.30;99.90;;;;;;4992679;28;20029;-72
2023/01/17 13:56:25;;;;;;;110.35;63.17;;;27.30;99.90;;;;;;4972109;28;20054;-70
2023/01/17 13:58:53;;;;;;;105.13;62.40;;;27.20;99.90;;;;;;5002916;28;20380;-71
2023/01/17 14:01:22;;;;;;;112.05;64.90;;;27.20;99.90;;;;;;5005842;28;20019;-69
2023/01/17 14:03:49;;;;;;;109.40;62.15;;;27.20;99.90;;;;;;5003158;28;20041;-71
2023/01/17 14:06:36;;;;;;;98.45;58.25;;;27.20;99.90;;;;;;5001753;28;20386;-71
2023/01/17 14:09:07;;;;;;;115.25;62.25;;;27.20;99.90;;;;;;4993845;28;20145;-71
2023/01/17 14:11:51;;;;;;;107.95;59.22;;;27.20;99.90;;;;;;4993890;28;20032;-70
2023/01/17 14:14:39;;;;;;;98.90;55.05;;;27.20;99.90;;;;;;4993619;28;20048;-71
2023/01/17 14:17:26;;;;;;;93.57;53.83;;;27.20;99.90;;;;;;4987654;28;20036;-71
2023/01/17 14:19:53;;;;;;;95.20;51.00;;;27.10;99.90;;;;;;4993673;28;20022;-70
2023/01/17 14:22:19;;;;;;;87.78;52.88;;;27.10;99.90;;;;;;4993304;28;20026;-70
2023/01/17 14:25:26;;;;;;;95.90;56.83;;;27.10;99.90;;;;;;4993776;28;20072;-71
2023/01/17 14:27:59;;;;;;;102.40;58.20;;;27.10;99.90;;;;;;4992787;28;20394;-71
2023/01/17 14:30:40;;;;;;;111.00;59.28;;;27.20;99.90;;;;;;4993700;28;20037;-70
2023/01/17 14:33:30;;;;;;;98.28;51.70;;;27.20;99.90;;;;;;4991462;28;20027;-71
2023/01/17 14:36:02;;;;;;;88.30;48.95;;;27.10;99.90;;;;;;4992235;28;20018;-70
2023/01/17 14:38:31;;;;;;;81.10;50.03;;;27.10;99.90;;;;;;4992928;28;20030;-72
2023/01/17 14:41:06;;;;;;;90.28;49.03;;;27.00;99.90;;;;;;4993272;28;20026;-71
2023/01/17 14:43:35;;;;;;;79.20;50.10;;;27.00;99.90;;;;;;4993185;28;20053;-71
2023/01/17 14:46:05;;;;;;;79.13;52.45;;;27.00;99.90;;;;;;4993291;28;20019;-70
2023/01/17 14:48:32;;;;;;;87.13;53.25;;;26.90;99.90;;;;;;4990882;28;20014;-71
2023/01/17 14:51:00;;;;;;;81.45;53.95;;;26.90;99.90;;;;;;4992965;28;20065;-70
2023/01/17 14:53:31;;;;;;;78.57;51.20;;;26.90;99.90;;;;;;4995065;28;20027;-70